Historique des mesures à Cassis (13260), France
Quotidien Résumé Juin 29, 2021 Unités:  Métrique    US   Métrique/US
Quotidien Hebdomadaire Mensuel Annuel
  Maximum: Minimum: Moyenne:
Température: 28.4 °C 18.6 °C 22.7 °C
Point de rosée: 15.7 °C 9.9 °C 12.6 °C
Humidité: 60% 45% 53%
Vitesse du vent: 13.7km/h 0km/h 5.1km/h
Rafales: 22.7km/h - -
Vent- - SW
Pression: 1009.5 hPa 1008.0 hPa -
Précipitations: 0.0 mm    
Historical Graphs
 
 
Mesures pour : Juin 29, 2021
Heure Temperature Point de rosée Pression Vent Vitesse du vent Rafales Humidité Pluie (par heure)
00:11 19.5 °C 9.9 °C 1008.5 hPa WNW 3.2 km/h 10.1 km/h 54% 0.0 mm
01:11 19 °C 10.3 °C 1008.5 hPa WNW 8.3 km/h 14 km/h 57% 0.0 mm
02:11 19.1 °C 10.4 °C 1008.4 hPa NNW 7.2 km/h 14.8 km/h 57% 0.0 mm
03:11 18.6 °C 10.2 °C 1008.0 hPa WNW 13.7 km/h 22.7 km/h 58% 0.0 mm
04:11 18.6 °C 10.4 °C 1008.1 hPa North 4.3 km/h 10.4 km/h 59% 0.0 mm
05:11 18.7 °C 10.8 °C 1008.2 hPa NW 5.8 km/h 12.6 km/h 60% 0.0 mm
06:11 18.7 °C 10.3 °C 1008.2 hPa NW 13.7 km/h 13.7 km/h 58% 0.0 mm
07:11 18.8 °C 10.1 °C 1008.6 hPa NNW 13.3 km/h 16.6 km/h 57% 0.0 mm
08:11 22.5 °C 12.1 °C 1008.9 hPa NNW 7.6 km/h 13.3 km/h 52% 0.0 mm
09:11 23.5 °C 11.8 °C 1008.9 hPa WNW 6.5 km/h 14.8 km/h 48% 0.0 mm
10:11 22.9 °C 12.5 °C 1009.1 hPa ESE 2.2 km/h 9 km/h 52% 0.0 mm
11:11 24.6 °C 14.1 °C 1009.5 hPa SE 2.5 km/h 7.9 km/h 52% 0.0 mm
12:11 26.9 °C 14.9 °C 1009.3 hPa Calm   9.4 km/h 48% 0.0 mm
13:11 27.8 °C 15.7 °C 1009.3 hPa SE 2.5 km/h 11.2 km/h 48% 0.0 mm
14:11 28.4 °C 15.6 °C 1009.4 hPa SE 5.8 km/h 9.7 km/h 46% 0.0 mm
15:11 27.8 °C 14.7 °C 1008.8 hPa Calm   13.7 km/h 45% 0.0 mm
16:11 27 °C 14 °C 1008.5 hPa ESE 3.2 km/h 16.2 km/h 45% 0.0 mm
17:11 26.7 °C 14.1 °C 1008.3 hPa ESE 6.5 km/h 8.6 km/h 46% 0.0 mm
18:11 26.1 °C 14.9 °C 1008.3 hPa Calm   6.8 km/h 50% 0.0 mm
19:11 24.9 °C 15.2 °C 1008.1 hPa Calm   2.5 km/h 55% 0.0 mm
20:11 23 °C 14.8 °C 1008.1 hPa Calm     60% 0.0 mm
21:11 21.6 °C 11.6 °C 1008.5 hPa WNW 5.8 km/h 13 km/h 53% 0.0 mm
22:11 20.8 °C 11.7 °C 1008.9 hPa Calm     56% 0.0 mm
23:11 19.8 °C 11.6 °C 1008.9 hPa WNW 9.4 km/h 10.4 km/h 59% 0.0 mm
Observations météo à CASSIS
WU-History script by Weather Underground - 2 mb